createdAt,value
2022-10-19T00:00:53.361Z,100305.00
2022-10-19T00:01:53.498Z,100311.00
2022-10-19T00:02:53.365Z,100310.00
2022-10-19T00:03:53.395Z,100305.00
2022-10-19T00:04:53.409Z,100311.00
2022-10-19T00:05:53.451Z,100314.00
2022-10-19T00:06:53.461Z,100313.00
2022-10-19T00:07:53.479Z,100317.00
2022-10-19T00:08:53.460Z,100318.00
2022-10-19T00:09:53.493Z,100319.00
2022-10-19T00:10:53.541Z,100317.00
2022-10-19T00:11:53.513Z,100317.00
2022-10-19T00:12:53.518Z,100317.00
2022-10-19T00:13:53.536Z,100321.00
2022-10-19T00:14:53.561Z,100320.00
2022-10-19T00:15:53.577Z,100314.00
2022-10-19T00:16:53.611Z,100319.00
2022-10-19T00:17:53.649Z,100320.00
2022-10-19T00:18:53.652Z,100322.00
2022-10-19T00:19:53.678Z,100321.00
2022-10-19T00:20:53.689Z,100320.00
2022-10-19T00:21:53.708Z,100318.00
2022-10-19T00:22:53.709Z,100323.00
2022-10-19T00:23:53.729Z,100324.00
2022-10-19T00:24:53.737Z,100321.00
2022-10-19T00:25:53.774Z,100323.00
2022-10-19T00:26:53.772Z,100325.00
2022-10-19T00:27:53.774Z,100324.00
2022-10-19T00:28:53.899Z,100325.00
2022-10-19T00:29:53.800Z,100324.00
2022-10-19T00:30:53.828Z,100319.00
2022-10-19T00:31:53.795Z,100324.00
2022-10-19T00:32:53.790Z,100325.00
2022-10-19T00:33:53.857Z,100318.00
2022-10-19T00:34:53.849Z,100322.00
2022-10-19T00:35:53.880Z,100320.00
2022-10-19T00:36:53.900Z,100316.00
2022-10-19T00:37:53.889Z,100316.00
2022-10-19T00:38:53.916Z,100318.00
2022-10-19T00:39:53.950Z,100320.00
2022-10-19T00:40:53.972Z,100315.00
2022-10-19T00:41:53.972Z,100314.00
2022-10-19T00:42:53.958Z,100312.00
2022-10-19T00:43:53.996Z,100310.00
2022-10-19T00:44:53.989Z,100308.00
2022-10-19T00:45:53.998Z,100306.00
2022-10-19T00:46:54.006Z,100308.00
2022-10-19T00:47:53.987Z,100309.00
2022-10-19T00:48:54.018Z,100311.00
2022-10-19T00:49:54.057Z,100313.00
2022-10-19T00:50:54.055Z,100312.00
2022-10-19T00:51:54.057Z,100315.00
2022-10-19T00:52:54.080Z,100311.00
2022-10-19T00:53:54.090Z,100315.00
2022-10-19T00:54:54.101Z,100314.00
2022-10-19T00:55:54.117Z,100308.00
2022-10-19T00:56:54.125Z,100312.00
2022-10-19T00:57:54.108Z,100316.00
2022-10-19T00:58:54.142Z,100316.00
2022-10-19T00:59:54.155Z,100314.00
2022-10-19T01:00:54.279Z,100314.00
2022-10-19T01:01:54.214Z,100313.00
2022-10-19T01:02:54.222Z,100313.00
2022-10-19T01:03:54.247Z,100315.00
2022-10-19T01:04:54.237Z,100314.00
2022-10-19T01:05:54.268Z,100317.00
2022-10-19T01:06:54.234Z,100316.00
2022-10-19T01:07:54.271Z,100316.00
2022-10-19T01:08:54.299Z,100316.00
2022-10-19T01:09:54.304Z,100314.00
2022-10-19T01:10:54.319Z,100312.00
2022-10-19T01:11:54.341Z,100315.00
2022-10-19T01:12:54.349Z,100316.00
2022-10-19T01:13:54.363Z,100315.00
2022-10-19T01:14:54.375Z,100316.00
2022-10-19T01:15:54.404Z,100314.00
2022-10-19T01:16:54.444Z,100312.00
2022-10-19T01:17:54.459Z,100309.00
2022-10-19T01:18:54.461Z,100308.00
2022-10-19T01:19:54.470Z,100309.00
2022-10-19T01:20:54.470Z,100308.00
2022-10-19T01:21:54.510Z,100307.00
2022-10-19T01:22:54.500Z,100302.00
2022-10-19T01:23:54.497Z,100302.00
2022-10-19T01:25:54.528Z,100300.00
2022-10-19T01:26:54.550Z,100302.00
2022-10-19T01:27:54.562Z,100301.00
2022-10-19T01:28:54.669Z,100300.00
2022-10-19T01:29:54.624Z,100294.00
2022-10-19T01:30:54.592Z,100298.00
2022-10-19T01:31:54.618Z,100300.00
2022-10-19T01:32:54.641Z,100290.00
2022-10-19T01:33:54.719Z,100299.00
2022-10-19T01:34:54.693Z,100294.00
2022-10-19T01:35:54.709Z,100291.00
2022-10-19T01:36:54.715Z,100293.00
2022-10-19T01:37:54.747Z,100292.00
2022-10-19T01:38:54.750Z,100291.00
2022-10-19T01:39:54.778Z,100287.00
2022-10-19T01:40:54.797Z,100288.00
2022-10-19T01:41:54.819Z,100292.00
2022-10-19T01:43:54.840Z,100286.00
2022-10-19T01:44:54.889Z,100287.00
2022-10-19T01:45:54.909Z,100286.00
2022-10-19T01:46:54.899Z,100283.00
2022-10-19T01:47:54.923Z,100281.00
2022-10-19T01:48:54.902Z,100281.00
2022-10-19T01:49:54.907Z,100275.00
2022-10-19T01:50:54.938Z,100281.00
2022-10-19T01:51:55.025Z,100281.00
2022-10-19T01:52:54.934Z,100281.00
2022-10-19T01:53:54.960Z,100279.00
2022-10-19T01:54:54.958Z,100277.00
2022-10-19T01:55:54.983Z,100277.00
2022-10-19T01:56:54.988Z,100277.00
2022-10-19T01:57:54.992Z,100274.00
2022-10-19T01:58:55.012Z,100270.00
2022-10-19T01:59:55.041Z,100265.00
2022-10-19T02:00:55.207Z,100274.00
2022-10-19T02:01:55.045Z,100271.00
2022-10-19T02:02:55.038Z,100268.00
2022-10-19T02:03:55.049Z,100271.00
2022-10-19T02:04:55.074Z,100268.00
2022-10-19T02:05:55.120Z,100272.00
2022-10-19T02:06:55.098Z,100272.00
2022-10-19T02:07:55.128Z,100268.00
2022-10-19T02:08:55.107Z,100270.00
2022-10-19T02:09:55.144Z,100267.00
2022-10-19T02:10:55.145Z,100266.00
2022-10-19T02:11:57.059Z,100265.00
2022-10-19T02:12:55.138Z,100263.00
2022-10-19T02:13:55.148Z,100263.00
2022-10-19T02:14:55.135Z,100265.00
2022-10-19T02:15:55.141Z,100264.00
2022-10-19T02:16:55.175Z,100260.00
2022-10-19T02:17:55.181Z,100266.00
2022-10-19T02:18:55.197Z,100256.00
2022-10-19T02:19:55.208Z,100263.00
2022-10-19T02:20:55.235Z,100263.00
2022-10-19T02:21:55.260Z,100261.00
2022-10-19T02:22:55.273Z,100257.00
2022-10-19T02:23:55.323Z,100254.00
2022-10-19T02:24:55.312Z,100257.00
2022-10-19T02:25:55.343Z,100253.00
2022-10-19T02:26:55.340Z,100254.00
2022-10-19T02:27:55.341Z,100255.00
2022-10-19T02:28:55.367Z,100254.00
2022-10-19T02:29:55.385Z,100258.00
2022-10-19T02:30:55.388Z,100254.00
2022-10-19T02:31:55.402Z,100250.00
2022-10-19T02:32:55.401Z,100256.00
2022-10-19T02:33:55.427Z,100255.00
2022-10-19T02:34:55.456Z,100254.00
2022-10-19T02:35:55.485Z,100252.00
2022-10-19T02:36:55.504Z,100251.00
2022-10-19T02:37:55.537Z,100248.00
2022-10-19T02:38:55.549Z,100249.00
2022-10-19T02:39:55.578Z,100249.00
2022-10-19T02:40:55.610Z,100240.00
2022-10-19T02:41:55.674Z,100247.00
2022-10-19T02:42:55.671Z,100247.00
2022-10-19T02:43:55.668Z,100245.00
2022-10-19T02:44:55.676Z,100245.00
2022-10-19T02:45:55.699Z,100244.00
2022-10-19T02:46:55.774Z,100243.00
2022-10-19T02:47:55.741Z,100240.00
2022-10-19T02:48:55.752Z,100244.00
2022-10-19T02:49:55.770Z,100241.00
2022-10-19T02:50:55.804Z,100242.00
2022-10-19T02:51:55.834Z,100242.00
2022-10-19T02:52:55.858Z,100247.00
2022-10-19T02:53:56.304Z,100245.00
2022-10-19T02:54:55.885Z,100248.00
2022-10-19T02:55:55.892Z,100248.00
2022-10-19T02:56:55.930Z,100249.00
2022-10-19T02:57:55.930Z,100248.00
2022-10-19T02:58:55.937Z,100245.00
2022-10-19T02:59:55.971Z,100248.00
2022-10-19T03:00:56.021Z,100246.00
2022-10-19T03:01:55.998Z,100247.00
2022-10-19T03:02:55.977Z,100252.00
2022-10-19T03:03:55.993Z,100248.00
2022-10-19T03:04:55.999Z,100248.00
2022-10-19T03:05:56.017Z,100252.00
2022-10-19T03:06:55.980Z,100250.00
2022-10-19T03:07:55.963Z,100250.00
2022-10-19T03:08:55.971Z,100250.00
2022-10-19T03:09:55.978Z,100252.00
2022-10-19T03:10:56.000Z,100248.00
2022-10-19T03:11:56.020Z,100248.00
2022-10-19T03:12:55.988Z,100252.00
2022-10-19T03:13:56.029Z,100248.00
2022-10-19T03:14:56.061Z,100247.00
2022-10-19T03:15:56.021Z,100246.00
2022-10-19T03:16:56.048Z,100246.00
2022-10-19T03:17:56.037Z,100248.00
2022-10-19T03:18:56.071Z,100245.00
2022-10-19T03:19:56.071Z,100242.00
2022-10-19T03:20:58.870Z,100244.00
2022-10-19T03:21:56.101Z,100240.00
2022-10-19T03:22:56.145Z,100240.00
2022-10-19T03:23:56.125Z,100235.00
2022-10-19T03:24:56.111Z,100238.00
2022-10-19T03:25:56.145Z,100233.00
2022-10-19T03:26:56.152Z,100242.00
2022-10-19T03:27:56.148Z,100240.00
2022-10-19T03:28:56.205Z,100233.00
2022-10-19T03:29:56.202Z,100238.00
2022-10-19T03:30:56.196Z,100240.00
2022-10-19T03:31:56.210Z,100241.00
2022-10-19T03:32:56.217Z,100239.00
2022-10-19T03:33:56.259Z,100241.00
2022-10-19T03:34:56.237Z,100240.00
2022-10-19T03:35:56.250Z,100241.00
2022-10-19T03:36:56.285Z,100243.00
2022-10-19T03:37:56.281Z,100240.00
2022-10-19T03:38:56.299Z,100241.00
2022-10-19T03:39:56.303Z,100241.00
2022-10-19T03:40:56.311Z,100240.00
2022-10-19T03:41:56.306Z,100235.00
2022-10-19T03:42:56.302Z,100241.00
2022-10-19T03:43:56.390Z,100235.00
2022-10-19T03:44:56.339Z,100241.00
2022-10-19T03:45:56.401Z,100236.00
2022-10-19T03:46:56.361Z,100235.00
2022-10-19T03:47:56.395Z,100236.00
2022-10-19T03:48:56.395Z,100235.00
2022-10-19T03:49:56.410Z,100236.00
2022-10-19T03:50:56.470Z,100235.00
2022-10-19T03:51:56.481Z,100235.00
2022-10-19T03:52:56.543Z,100232.00
2022-10-19T03:53:56.518Z,100238.00
2022-10-19T03:54:56.512Z,100238.00
2022-10-19T03:55:56.534Z,100236.00
2022-10-19T03:56:56.533Z,100240.00
2022-10-19T03:57:56.543Z,100236.00
2022-10-19T03:58:56.557Z,100239.00
2022-10-19T03:59:56.587Z,100242.00
2022-10-19T04:00:56.615Z,100232.00
2022-10-19T04:01:56.597Z,100230.00
2022-10-19T04:02:56.605Z,100232.00
2022-10-19T04:03:56.625Z,100230.00
2022-10-19T04:04:56.650Z,100227.00
2022-10-19T04:05:56.665Z,100227.00
2022-10-19T04:06:56.682Z,100224.00
2022-10-19T04:07:56.698Z,100222.00
2022-10-19T04:08:56.715Z,100226.00
2022-10-19T04:09:56.754Z,100220.00
2022-10-19T04:10:56.782Z,100218.00
2022-10-19T04:11:56.792Z,100219.00
2022-10-19T04:12:56.805Z,100220.00
2022-10-19T04:13:56.859Z,100218.00
2022-10-19T04:14:57.839Z,100223.00
2022-10-19T04:15:56.813Z,100224.00
2022-10-19T04:16:56.827Z,100224.00
2022-10-19T04:17:56.835Z,100228.00
2022-10-19T04:18:56.843Z,100228.00
2022-10-19T04:19:56.850Z,100230.00
2022-10-19T04:20:56.831Z,100229.00
2022-10-19T04:21:56.857Z,100231.00
2022-10-19T04:22:56.875Z,100235.00
2022-10-19T04:23:56.884Z,100234.00
2022-10-19T04:24:56.911Z,100235.00
2022-10-19T04:25:56.904Z,100238.00
2022-10-19T04:26:56.906Z,100238.00
2022-10-19T04:27:56.938Z,100244.00
2022-10-19T04:28:56.991Z,100248.00
2022-10-19T04:29:57.602Z,100249.00
2022-10-19T04:30:56.964Z,100254.00
2022-10-19T04:31:56.959Z,100251.00
2022-10-19T04:32:56.965Z,100253.00
2022-10-19T04:33:57.004Z,100252.00
2022-10-19T04:34:57.000Z,100257.00
2022-10-19T04:35:57.001Z,100258.00
2022-10-19T04:36:57.028Z,100258.00
2022-10-19T04:37:57.023Z,100250.00
2022-10-19T04:38:57.044Z,100246.00
2022-10-19T04:39:57.092Z,100248.00
2022-10-19T04:40:57.064Z,100250.00
2022-10-19T04:41:57.076Z,100251.00
2022-10-19T04:42:57.094Z,100250.00
2022-10-19T04:43:57.121Z,100248.00
2022-10-19T04:44:57.131Z,100247.00
2022-10-19T04:45:57.146Z,100246.00
2022-10-19T04:46:57.159Z,100247.00
2022-10-19T04:47:57.165Z,100247.00
2022-10-19T04:48:57.184Z,100248.00
2022-10-19T04:49:57.209Z,100243.00
2022-10-19T04:50:57.219Z,100248.00
2022-10-19T04:51:57.223Z,100241.00
2022-10-19T04:52:57.191Z,100244.00
2022-10-19T04:53:59.523Z,100245.00
2022-10-19T04:54:57.210Z,100246.00
2022-10-19T04:55:57.209Z,100244.00
2022-10-19T04:56:57.230Z,100246.00
2022-10-19T04:57:57.235Z,100245.00
2022-10-19T04:58:57.241Z,100243.00
2022-10-19T04:59:57.244Z,100244.00
2022-10-19T05:02:23.155Z,100240.00
2022-10-19T05:03:23.161Z,100244.00
2022-10-19T05:04:23.186Z,100243.00
2022-10-19T05:05:23.232Z,100241.00
2022-10-19T05:06:23.229Z,100240.00
2022-10-19T05:07:23.244Z,100244.00
2022-10-19T05:08:23.237Z,100239.00
2022-10-19T05:09:23.247Z,100238.00
2022-10-19T05:10:23.260Z,100237.00
2022-10-19T05:11:23.272Z,100232.00
2022-10-19T05:12:23.306Z,100235.00
2022-10-19T05:13:23.328Z,100237.00
2022-10-19T05:14:23.387Z,100229.00
2022-10-19T05:15:23.385Z,100241.00
2022-10-19T05:16:23.397Z,100236.00
2022-10-19T05:17:23.397Z,100238.00
2022-10-19T05:18:23.378Z,100241.00
2022-10-19T05:19:23.385Z,100244.00
2022-10-19T05:20:23.395Z,100240.00
2022-10-19T05:21:23.446Z,100243.00
2022-10-19T05:22:23.438Z,100236.00
2022-10-19T05:23:23.515Z,100243.00
2022-10-19T05:24:23.528Z,100241.00
2022-10-19T05:25:23.481Z,100240.00
2022-10-19T05:26:23.497Z,100242.00
2022-10-19T05:27:23.552Z,100230.00
2022-10-19T05:28:23.531Z,100239.00
2022-10-19T05:29:23.569Z,100241.00
2022-10-19T05:30:23.546Z,100238.00
2022-10-19T05:31:23.601Z,100240.00
2022-10-19T05:32:23.621Z,100242.00
2022-10-19T05:33:23.659Z,100240.00
2022-10-19T05:34:23.649Z,100240.00
2022-10-19T05:35:23.653Z,100239.00
2022-10-19T05:36:23.700Z,100239.00
2022-10-19T05:37:23.728Z,100237.00
2022-10-19T05:38:23.743Z,100239.00
2022-10-19T05:39:23.754Z,100240.00
2022-10-19T05:40:23.756Z,100240.00
2022-10-19T05:41:23.868Z,100242.00
2022-10-19T05:42:23.791Z,100240.00
2022-10-19T05:43:24.388Z,100239.00
2022-10-19T05:44:23.828Z,100235.00
2022-10-19T05:45:23.855Z,100238.00
2022-10-19T05:46:23.888Z,100240.00
2022-10-19T05:47:27.322Z,100242.00
2022-10-19T05:48:24.031Z,100242.00
2022-10-19T05:49:24.036Z,100241.00
2022-10-19T05:50:24.168Z,100243.00
2022-10-19T05:51:23.998Z,100244.00
2022-10-19T05:52:23.979Z,100244.00
2022-10-19T05:53:24.041Z,100242.00
2022-10-19T05:54:26.384Z,100242.00
2022-10-19T05:55:23.989Z,100238.00
2022-10-19T05:56:24.007Z,100242.00
2022-10-19T05:57:24.050Z,100241.00
2022-10-19T05:58:24.525Z,100246.00
2022-10-19T05:59:24.075Z,100239.00
2022-10-19T06:00:24.107Z,100244.00
2022-10-19T06:01:24.265Z,100244.00
2022-10-19T06:02:24.122Z,100244.00
2022-10-19T06:03:24.159Z,100244.00
2022-10-19T06:04:24.148Z,100244.00
2022-10-19T06:05:24.125Z,100235.00
2022-10-19T06:06:24.153Z,100246.00
2022-10-19T06:07:24.305Z,100245.00
2022-10-19T06:08:24.139Z,100246.00
2022-10-19T06:09:24.162Z,100245.00
2022-10-19T06:10:24.170Z,100247.00
2022-10-19T06:11:24.208Z,100249.00
2022-10-19T06:12:25.112Z,100250.00
2022-10-19T06:13:24.203Z,100248.00
2022-10-19T06:14:24.225Z,100250.00
2022-10-19T06:15:24.254Z,100246.00
2022-10-19T06:16:24.250Z,100250.00
2022-10-19T06:17:24.270Z,100247.00
2022-10-19T06:18:24.304Z,100252.00
2022-10-19T06:19:24.329Z,100245.00
2022-10-19T06:20:24.353Z,100248.00
2022-10-19T06:21:24.377Z,100241.00
2022-10-19T06:22:24.423Z,100244.00
2022-10-19T06:23:24.422Z,100244.00
2022-10-19T06:24:24.444Z,100246.00
2022-10-19T06:25:24.509Z,100244.00
2022-10-19T06:26:24.441Z,100246.00
2022-10-19T06:27:24.619Z,100247.00
2022-10-19T06:28:24.442Z,100246.00
2022-10-19T06:29:24.442Z,100247.00
2022-10-19T06:30:24.539Z,100251.00
2022-10-19T06:31:24.491Z,100252.00
2022-10-19T06:32:24.511Z,100249.00
2022-10-19T06:33:24.543Z,100253.00
2022-10-19T06:34:24.627Z,100255.00
2022-10-19T06:35:24.578Z,100258.00
2022-10-19T06:36:24.566Z,100252.00
2022-10-19T06:37:24.580Z,100257.00
2022-10-19T06:38:24.604Z,100257.00
2022-10-19T06:39:24.650Z,100252.00
2022-10-19T06:40:24.778Z,100264.00
2022-10-19T06:41:24.717Z,100263.00
2022-10-19T06:42:24.730Z,100264.00
2022-10-19T06:43:24.752Z,100265.00
2022-10-19T06:44:24.755Z,100263.00
2022-10-19T06:45:24.759Z,100266.00
2022-10-19T06:46:24.837Z,100266.00
2022-10-19T06:47:24.789Z,100267.00
2022-10-19T06:48:24.804Z,100266.00
2022-10-19T06:49:24.807Z,100266.00
2022-10-19T06:50:24.855Z,100259.00
2022-10-19T06:51:24.818Z,100267.00
2022-10-19T06:52:24.837Z,100263.00
2022-10-19T06:53:24.843Z,100269.00
2022-10-19T06:54:24.886Z,100265.00
2022-10-19T06:55:24.912Z,100264.00
2022-10-19T06:56:24.921Z,100271.00
2022-10-19T06:57:24.974Z,100274.00
2022-10-19T06:58:25.993Z,100271.00
2022-10-19T06:59:25.000Z,100275.00
2022-10-19T07:00:25.030Z,100277.00
2022-10-19T07:01:25.138Z,100281.00
2022-10-19T07:02:25.072Z,100281.00
2022-10-19T07:03:25.070Z,100279.00
2022-10-19T07:04:25.051Z,100278.00
2022-10-19T07:05:25.079Z,100284.00
2022-10-19T07:06:25.112Z,100282.00
2022-10-19T07:07:25.211Z,100282.00
2022-10-19T07:08:25.120Z,100279.00
2022-10-19T07:09:25.138Z,100280.00
2022-10-19T07:10:25.199Z,100279.00
2022-10-19T07:11:25.179Z,100282.00
2022-10-19T07:12:25.486Z,100279.00
2022-10-19T07:13:25.201Z,100278.00
2022-10-19T07:14:25.196Z,100280.00
2022-10-19T07:15:25.212Z,100280.00
2022-10-19T07:16:25.258Z,100279.00
2022-10-19T07:17:25.239Z,100279.00
2022-10-19T07:18:25.271Z,100278.00
2022-10-19T07:19:25.303Z,100280.00
2022-10-19T07:20:25.307Z,100278.00
2022-10-19T07:21:25.346Z,100282.00
2022-10-19T07:22:28.075Z,100278.00
2022-10-19T07:23:25.353Z,100279.00
2022-10-19T07:24:25.451Z,100281.00
2022-10-19T07:25:25.419Z,100277.00
2022-10-19T07:26:25.442Z,100282.00
2022-10-19T07:27:25.465Z,100283.00
2022-10-19T07:28:25.477Z,100283.00
2022-10-19T07:29:25.532Z,100286.00
2022-10-19T07:30:25.482Z,100289.00
2022-10-19T07:31:25.514Z,100281.00
2022-10-19T07:32:25.529Z,100282.00
2022-10-19T07:33:25.550Z,100284.00
2022-10-19T07:34:28.941Z,100284.00
2022-10-19T07:35:25.559Z,100284.00
2022-10-19T07:36:25.566Z,100282.00
2022-10-19T07:37:25.594Z,100281.00
2022-10-19T07:38:26.351Z,100282.00
2022-10-19T07:39:25.622Z,100284.00
2022-10-19T07:40:25.593Z,100282.00
2022-10-19T07:41:25.856Z,100281.00
2022-10-19T07:42:25.679Z,100282.00
2022-10-19T07:43:25.609Z,100288.00
2022-10-19T07:44:25.640Z,100288.00
2022-10-19T07:45:25.695Z,100291.00
2022-10-19T07:46:25.699Z,100294.00
2022-10-19T07:47:25.722Z,100296.00
2022-10-19T07:48:25.735Z,100297.00
2022-10-19T07:49:25.794Z,100294.00
2022-10-19T07:50:25.758Z,100296.00
2022-10-19T07:51:25.848Z,100287.00
2022-10-19T07:52:25.846Z,100291.00
2022-10-19T07:53:25.827Z,100294.00
2022-10-19T07:54:25.837Z,100289.00
2022-10-19T07:55:25.820Z,100294.00
2022-10-19T07:56:25.829Z,100291.00
2022-10-19T07:57:25.873Z,100288.00
2022-10-19T07:58:25.912Z,100290.00
2022-10-19T07:59:25.883Z,100292.00
2022-10-19T08:00:25.911Z,100289.00
2022-10-19T08:01:25.943Z,100285.00
2022-10-19T08:02:30.878Z,100286.00
2022-10-19T08:05:26.028Z,100287.00
2022-10-19T08:06:25.985Z,100287.00
2022-10-19T08:07:25.968Z,100287.00
2022-10-19T08:08:26.021Z,100283.00
2022-10-19T08:09:52.578Z,100288.00
2022-10-19T08:10:26.014Z,100285.00
2022-10-19T08:11:26.084Z,100282.00
2022-10-19T08:12:26.027Z,100281.00
2022-10-19T08:13:26.022Z,100285.00
2022-10-19T08:14:26.024Z,100284.00
2022-10-19T08:15:26.038Z,100283.00
2022-10-19T08:16:26.069Z,100283.00
2022-10-19T08:17:26.083Z,100286.00
2022-10-19T08:18:26.187Z,100286.00
2022-10-19T08:19:26.081Z,100287.00
2022-10-19T08:20:26.097Z,100288.00
2022-10-19T08:21:26.231Z,100291.00
2022-10-19T08:22:26.304Z,100287.00
2022-10-19T08:23:26.146Z,100291.00
2022-10-19T08:24:26.163Z,100292.00
2022-10-19T08:25:26.183Z,100293.00
2022-10-19T08:26:26.234Z,100293.00
2022-10-19T08:27:26.342Z,100298.00
2022-10-19T08:28:26.283Z,100295.00
2022-10-19T08:29:29.090Z,100296.00
2022-10-19T08:30:26.271Z,100295.00
2022-10-19T08:31:26.298Z,100297.00
2022-10-19T08:32:26.320Z,100301.00
2022-10-19T08:33:26.318Z,100301.00
2022-10-19T08:34:26.370Z,100304.00
2022-10-19T08:35:26.327Z,100302.00
2022-10-19T08:36:26.356Z,100302.00
2022-10-19T08:37:44.251Z,100301.00
2022-10-19T08:38:26.372Z,100302.00
2022-10-19T08:39:26.369Z,100299.00
2022-10-19T08:40:26.389Z,100298.00
2022-10-19T08:41:26.420Z,100296.00
2022-10-19T08:42:26.443Z,100299.00
2022-10-19T08:43:26.425Z,100299.00
2022-10-19T08:44:26.445Z,100299.00
2022-10-19T08:45:26.606Z,100298.00
2022-10-19T08:46:26.479Z,100295.00
2022-10-19T08:47:26.492Z,100297.00
2022-10-19T08:48:26.503Z,100296.00
2022-10-19T08:49:26.537Z,100300.00
2022-10-19T08:50:27.123Z,100298.00
2022-10-19T08:51:26.589Z,100298.00
2022-10-19T08:52:29.606Z,100295.00
2022-10-19T08:53:26.546Z,100294.00
2022-10-19T08:54:26.559Z,100294.00
2022-10-19T08:55:26.639Z,100296.00
2022-10-19T08:56:49.316Z,100298.00
2022-10-19T08:57:26.595Z,100293.00
2022-10-19T08:58:26.621Z,100295.00
2022-10-19T08:59:26.651Z,100293.00
2022-10-19T09:00:26.764Z,100291.00
2022-10-19T09:01:26.685Z,100292.00
2022-10-19T09:02:26.726Z,100294.00
2022-10-19T09:03:43.882Z,100291.00
2022-10-19T09:04:26.720Z,100285.00
2022-10-19T09:05:26.754Z,100285.00
2022-10-19T09:06:26.759Z,100288.00
2022-10-19T09:07:26.789Z,100284.00
2022-10-19T09:08:26.793Z,100287.00
2022-10-19T09:09:26.789Z,100287.00
2022-10-19T09:10:26.809Z,100289.00
2022-10-19T09:11:26.891Z,100290.00
2022-10-19T09:12:26.846Z,100296.00
2022-10-19T09:13:36.379Z,100294.00
2022-10-19T09:14:26.895Z,100297.00
2022-10-19T09:15:26.910Z,100303.00
2022-10-19T09:16:26.860Z,100303.00
2022-10-19T09:17:26.884Z,100304.00
2022-10-19T09:18:26.884Z,100302.00
2022-10-19T09:19:26.923Z,100305.00
2022-10-19T09:20:26.945Z,100311.00
2022-10-19T09:21:33.427Z,100305.00
2022-10-19T09:22:26.938Z,100303.00
2022-10-19T09:23:26.973Z,100310.00
2022-10-19T09:24:26.980Z,100307.00
2022-10-19T09:25:27.019Z,100306.00
2022-10-19T09:26:27.009Z,100307.00
2022-10-19T09:27:27.051Z,100303.00
2022-10-19T09:28:31.459Z,100306.00
2022-10-19T09:29:27.234Z,100304.00
2022-10-19T09:30:27.171Z,100300.00
2022-10-19T09:31:30.406Z,100297.00
2022-10-19T09:32:27.174Z,100300.00
2022-10-19T09:33:27.188Z,100296.00
2022-10-19T09:34:27.152Z,100298.00
2022-10-19T09:35:27.166Z,100296.00
2022-10-19T09:36:39.363Z,100296.00
2022-10-19T09:37:27.314Z,100295.00
2022-10-19T09:38:27.157Z,100296.00
2022-10-19T09:39:29.448Z,100294.00
2022-10-19T09:40:27.239Z,100291.00
2022-10-19T09:41:27.192Z,100290.00
2022-10-19T09:42:27.215Z,100292.00
2022-10-19T09:43:27.288Z,100293.00
2022-10-19T09:44:27.359Z,100291.00
2022-10-19T09:45:27.288Z,100290.00
2022-10-19T09:46:27.339Z,100290.00
2022-10-19T09:47:27.325Z,100286.00
2022-10-19T09:48:29.275Z,100287.00
2022-10-19T09:49:27.292Z,100286.00
2022-10-19T09:50:27.321Z,100286.00
2022-10-19T09:51:27.347Z,100288.00
2022-10-19T09:52:27.356Z,100284.00
2022-10-19T09:53:27.428Z,100284.00
2022-10-19T09:54:27.389Z,100290.00
2022-10-19T09:55:27.660Z,100291.00
2022-10-19T09:56:27.433Z,100289.00
2022-10-19T09:57:27.425Z,100286.00
2022-10-19T09:58:30.499Z,100289.00
2022-10-19T09:59:27.402Z,100288.00
2022-10-19T10:00:27.423Z,100290.00
2022-10-19T10:01:34.144Z,100288.00
2022-10-19T10:02:27.590Z,100285.00
2022-10-19T10:03:27.515Z,100287.00
2022-10-19T10:04:27.501Z,100285.00
2022-10-19T10:05:27.515Z,100285.00
2022-10-19T10:06:27.504Z,100283.00
2022-10-19T10:07:27.519Z,100282.00
2022-10-19T10:08:27.599Z,100286.00
2022-10-19T10:09:27.565Z,100283.00
2022-10-19T10:10:30.423Z,100284.00
2022-10-19T10:11:27.599Z,100286.00
2022-10-19T10:12:27.586Z,100286.00
2022-10-19T10:13:27.601Z,100282.00
2022-10-19T10:14:27.616Z,100283.00
2022-10-19T10:15:27.587Z,100281.00
2022-10-19T10:16:27.628Z,100281.00
2022-10-19T10:17:27.600Z,100276.00
2022-10-19T10:18:27.644Z,100276.00
2022-10-19T10:19:27.630Z,100271.00
2022-10-19T10:20:27.672Z,100270.00
2022-10-19T10:21:27.721Z,100267.00
2022-10-19T10:22:27.702Z,100269.00
2022-10-19T10:23:27.696Z,100269.00
2022-10-19T10:24:27.728Z,100271.00
2022-10-19T10:25:27.775Z,100269.00
2022-10-19T10:26:27.917Z,100272.00
2022-10-19T10:27:27.807Z,100271.00
2022-10-19T10:28:27.799Z,100269.00
2022-10-19T10:29:27.817Z,100268.00
2022-10-19T10:30:27.861Z,100271.00
2022-10-19T10:31:27.885Z,100268.00
2022-10-19T10:32:27.936Z,100268.00
2022-10-19T10:33:43.825Z,100265.00
2022-10-19T10:34:37.683Z,100266.00
2022-10-19T10:35:28.178Z,100263.00
2022-10-19T10:36:28.104Z,100263.00
2022-10-19T10:37:28.039Z,100262.00
2022-10-19T10:38:28.066Z,100262.00
2022-10-19T10:39:27.987Z,100264.00
2022-10-19T10:40:27.996Z,100265.00
2022-10-19T10:41:28.054Z,100263.00
2022-10-19T10:42:28.008Z,100264.00
2022-10-19T10:43:28.019Z,100261.00
2022-10-19T10:44:28.005Z,100265.00
2022-10-19T10:45:28.024Z,100263.00
2022-10-19T10:46:28.050Z,100261.00
2022-10-19T10:47:28.086Z,100265.00
2022-10-19T10:48:28.141Z,100261.00
2022-10-19T10:49:28.116Z,100259.00
2022-10-19T10:50:28.144Z,100262.00
2022-10-19T10:51:28.152Z,100265.00
2022-10-19T10:52:28.151Z,100259.00
2022-10-19T10:53:28.216Z,100256.00
2022-10-19T10:54:28.196Z,100258.00
2022-10-19T10:55:28.216Z,100256.00
2022-10-19T10:56:28.265Z,100257.00
2022-10-19T10:57:28.293Z,100260.00
2022-10-19T10:58:30.366Z,100257.00
2022-10-19T10:59:28.261Z,100256.00
2022-10-19T11:00:28.349Z,100255.00
2022-10-19T11:01:28.432Z,100253.00
2022-10-19T11:02:28.367Z,100249.00
2022-10-19T11:03:28.309Z,100252.00
2022-10-19T11:04:28.361Z,100252.00
2022-10-19T11:05:28.331Z,100250.00
2022-10-19T11:06:28.374Z,100251.00
2022-10-19T11:07:28.383Z,100249.00
2022-10-19T11:08:28.467Z,100250.00
2022-10-19T11:09:28.417Z,100248.00
2022-10-19T11:10:28.440Z,100249.00
2022-10-19T11:11:28.442Z,100250.00
2022-10-19T11:12:31.548Z,100244.00
2022-10-19T11:13:28.483Z,100243.00
2022-10-19T11:14:28.471Z,100247.00
2022-10-19T11:16:28.575Z,100244.00
2022-10-19T11:17:28.483Z,100243.00
2022-10-19T11:18:28.510Z,100241.00
2022-10-19T11:19:28.529Z,100241.00
2022-10-19T11:20:28.573Z,100242.00
2022-10-19T11:21:28.568Z,100248.00
2022-10-19T11:22:28.555Z,100242.00
2022-10-19T11:23:28.597Z,100245.00
2022-10-19T11:25:28.584Z,100239.00
2022-10-19T11:26:28.618Z,100239.00
2022-10-19T11:27:28.643Z,100237.00
2022-10-19T11:28:28.671Z,100234.00
2022-10-19T11:29:28.724Z,100233.00
2022-10-19T11:30:28.734Z,100236.00
2022-10-19T11:31:29.821Z,100234.00
2022-10-19T11:32:28.766Z,100235.00